createdAt,value
2023-01-06T00:01:23.637Z,10.45
2023-01-06T00:03:52.070Z,11.55
2023-01-06T00:06:27.500Z,4.80
2023-01-06T00:08:58.816Z,9.82
2023-01-06T00:11:25.957Z,8.73
2023-01-06T00:13:53.350Z,6.68
2023-01-06T00:16:22.214Z,9.05
2023-01-06T00:18:49.397Z,6.53
2023-01-06T00:21:17.269Z,5.05
2023-01-06T00:23:44.317Z,4.45
2023-01-06T00:26:12.652Z,10.70
2023-01-06T00:28:39.726Z,6.30
2023-01-06T00:31:15.083Z,8.52
2023-01-06T00:33:43.380Z,6.97
2023-01-06T00:36:12.313Z,6.18
2023-01-06T00:38:42.169Z,7.30
2023-01-06T00:41:33.030Z,9.18
2023-01-06T00:44:02.086Z,12.23
2023-01-06T00:46:31.675Z,8.52
2023-01-06T00:49:07.654Z,3.90
2023-01-06T00:51:40.036Z,8.73
2023-01-06T00:54:09.072Z,4.85
2023-01-06T00:56:38.583Z,6.85
2023-01-06T00:59:07.143Z,10.57
2023-01-06T01:01:34.940Z,8.93
2023-01-06T01:04:02.216Z,11.23
2023-01-06T01:06:29.316Z,4.95
2023-01-06T01:09:00.409Z,3.28
2023-01-06T01:11:46.707Z,5.85
2023-01-06T01:14:15.353Z,8.57
2023-01-06T01:16:48.392Z,8.48
2023-01-06T01:19:15.600Z,4.63
2023-01-06T01:21:43.854Z,4.70
2023-01-06T01:24:11.418Z,4.93
2023-01-06T01:26:39.240Z,3.28
2023-01-06T01:29:06.327Z,11.20
2023-01-06T01:31:33.484Z,9.07
2023-01-06T01:34:03.441Z,7.07
2023-01-06T01:36:30.694Z,10.88
2023-01-06T01:39:00.204Z,6.97
2023-01-06T01:41:28.775Z,9.25
2023-01-06T01:44:01.537Z,6.00
2023-01-06T01:46:42.739Z,7.68
2023-01-06T01:49:33.803Z,6.40
2023-01-06T01:52:01.011Z,4.05
2023-01-06T01:54:31.628Z,5.55
2023-01-06T01:57:10.308Z,7.00
2023-01-06T01:59:39.350Z,5.65
2023-01-06T02:02:08.727Z,6.57
2023-01-06T02:04:41.088Z,9.23
2023-01-06T02:07:08.174Z,8.40
2023-01-06T02:09:47.391Z,10.45
2023-01-06T02:12:14.865Z,5.65
2023-01-06T02:14:41.762Z,7.85
2023-01-06T02:17:26.882Z,3.92
2023-01-06T02:20:31.611Z,6.03
2023-01-06T02:23:37.060Z,7.80
2023-01-06T02:26:43.241Z,16.55
2023-01-06T02:29:19.743Z,3.72
2023-01-06T02:31:58.773Z,5.68
2023-01-06T02:34:42.013Z,4.22
2023-01-06T02:37:26.935Z,7.30
2023-01-06T02:40:15.730Z,9.50
2023-01-06T02:42:47.838Z,6.20
2023-01-06T02:45:35.114Z,6.78
2023-01-06T02:48:17.396Z,9.38
2023-01-06T02:50:44.220Z,7.40
2023-01-06T02:53:44.586Z,6.15
2023-01-06T02:56:11.998Z,7.88
2023-01-06T02:58:59.035Z,5.93
2023-01-06T03:01:32.855Z,9.93
2023-01-06T03:04:05.558Z,10.52
2023-01-06T03:06:35.298Z,8.25
2023-01-06T03:09:05.380Z,7.10
2023-01-06T03:11:33.416Z,8.27
2023-01-06T03:14:06.396Z,9.43
2023-01-06T03:16:34.462Z,6.10
2023-01-06T03:19:04.337Z,8.77
2023-01-06T03:21:35.198Z,6.82
2023-01-06T03:24:04.509Z,7.93
2023-01-06T03:26:32.640Z,3.40
2023-01-06T03:29:00.755Z,5.75
2023-01-06T03:31:55.652Z,9.25
2023-01-06T03:34:32.734Z,6.40
2023-01-06T03:37:34.856Z,7.85
2023-01-06T03:40:39.742Z,4.90
2023-01-06T03:43:28.288Z,4.00
2023-01-06T03:46:10.605Z,8.27
2023-01-06T03:48:55.494Z,5.53
2023-01-06T03:51:56.765Z,9.80
2023-01-06T03:54:53.035Z,7.05
2023-01-06T03:57:43.203Z,6.40
2023-01-06T04:00:21.379Z,6.22
2023-01-06T04:02:48.624Z,7.43
2023-01-06T04:05:19.332Z,5.28
2023-01-06T04:07:46.912Z,10.63
2023-01-06T04:10:15.832Z,8.57
2023-01-06T04:12:42.583Z,5.47
2023-01-06T04:15:13.972Z,7.22
2023-01-06T04:17:42.255Z,8.53
2023-01-06T04:20:13.313Z,6.50
2023-01-06T04:22:40.399Z,5.28
2023-01-06T04:25:08.577Z,8.75
2023-01-06T04:27:38.576Z,6.32
2023-01-06T04:30:12.029Z,6.40
2023-01-06T04:32:39.077Z,4.05
2023-01-06T04:35:07.025Z,3.47
2023-01-06T04:37:35.015Z,4.75
2023-01-06T04:40:02.217Z,7.05
2023-01-06T04:42:50.703Z,4.97
2023-01-06T04:45:17.664Z,4.15
2023-01-06T04:47:44.665Z,3.72
2023-01-06T04:50:12.933Z,4.45
2023-01-06T04:52:40.037Z,3.85
2023-01-06T04:55:07.408Z,4.50
2023-01-06T04:57:34.388Z,7.15
2023-01-06T05:00:01.125Z,3.30
2023-01-06T05:02:27.968Z,7.63
2023-01-06T05:04:55.992Z,5.57
2023-01-06T05:07:22.845Z,3.05
2023-01-06T05:09:49.883Z,8.32
2023-01-06T05:12:17.935Z,5.03
2023-01-06T05:14:44.651Z,6.15
2023-01-06T05:17:11.833Z,5.22
2023-01-06T05:19:38.601Z,5.30
2023-01-06T05:22:05.878Z,3.70
2023-01-06T05:24:32.990Z,3.42
2023-01-06T05:27:00.037Z,3.65
2023-01-06T05:29:28.188Z,4.50
2023-01-06T05:31:55.122Z,4.28
2023-01-06T05:34:21.994Z,12.45
2023-01-06T05:36:48.787Z,2.80
2023-01-06T05:39:19.369Z,3.47
2023-01-06T05:41:46.382Z,4.50
2023-01-06T05:44:16.277Z,3.85
2023-01-06T05:46:43.126Z,3.08
2023-01-06T05:49:09.986Z,3.78
2023-01-06T05:51:37.684Z,3.80
2023-01-06T05:54:08.708Z,5.78
2023-01-06T05:56:38.348Z,3.08
2023-01-06T05:59:05.203Z,4.43
2023-01-06T06:01:33.528Z,5.60
2023-01-06T06:04:00.664Z,2.60
2023-01-06T06:06:29.692Z,4.25
2023-01-06T06:08:57.385Z,5.45
2023-01-06T06:11:24.817Z,2.40
2023-01-06T06:13:53.846Z,3.95
2023-01-06T06:16:25.136Z,4.38
2023-01-06T06:18:56.907Z,4.28
2023-01-06T06:21:26.464Z,4.68
2023-01-06T06:23:54.997Z,3.42
2023-01-06T06:26:22.671Z,6.38
2023-01-06T06:28:49.780Z,5.10
2023-01-06T06:31:20.513Z,3.08
2023-01-06T06:33:56.907Z,4.18
2023-01-06T06:36:24.270Z,2.60
2023-01-06T06:38:55.728Z,2.92
2023-01-06T06:41:23.786Z,3.50
2023-01-06T06:43:51.682Z,3.30
2023-01-06T06:46:21.117Z,5.90
2023-01-06T06:48:49.979Z,3.30
2023-01-06T06:51:19.361Z,3.97
2023-01-06T06:53:47.013Z,7.25
2023-01-06T06:56:25.748Z,2.85
2023-01-06T06:58:52.780Z,6.10
2023-01-06T07:01:22.815Z,2.47
2023-01-06T07:03:50.463Z,2.28
2023-01-06T07:06:22.922Z,5.35
2023-01-06T07:08:51.409Z,3.45
2023-01-06T07:11:19.078Z,6.57
2023-01-06T07:13:46.848Z,4.63
2023-01-06T07:16:13.786Z,3.38
2023-01-06T07:18:41.009Z,2.00
2023-01-06T07:21:08.446Z,3.92
2023-01-06T07:23:35.718Z,2.60
2023-01-06T07:26:04.300Z,3.80
2023-01-06T07:28:32.531Z,2.60
2023-01-06T07:31:00.179Z,3.95
2023-01-06T07:33:31.879Z,1.88
2023-01-06T07:35:58.768Z,2.75
2023-01-06T07:38:26.501Z,2.20
2023-01-06T07:40:55.890Z,2.80
2023-01-06T07:43:22.693Z,3.55
2023-01-06T07:45:49.703Z,2.67
2023-01-06T07:48:17.401Z,2.65
2023-01-06T07:50:44.638Z,3.42
2023-01-06T07:53:13.171Z,3.05
2023-01-06T07:55:42.439Z,2.72
2023-01-06T07:58:10.299Z,4.78
2023-01-06T08:00:38.001Z,2.15
2023-01-06T08:03:08.549Z,6.00
2023-01-06T08:05:43.157Z,3.05
2023-01-06T08:08:11.263Z,3.15
2023-01-06T08:10:44.735Z,4.95
2023-01-06T08:13:13.734Z,4.53
2023-01-06T08:15:45.276Z,2.72
2023-01-06T08:18:12.334Z,3.20
2023-01-06T08:20:39.618Z,2.05
2023-01-06T08:23:08.823Z,4.10
2023-01-06T08:25:35.718Z,6.28
2023-01-06T08:28:03.689Z,3.83
2023-01-06T08:30:30.998Z,3.28
2023-01-06T08:32:59.380Z,3.20
2023-01-06T08:35:27.490Z,5.40
2023-01-06T08:37:54.497Z,5.60
2023-01-06T08:40:21.443Z,4.07
2023-01-06T08:42:49.823Z,8.18
2023-01-06T08:45:18.106Z,7.10
2023-01-06T08:47:48.318Z,9.88
2023-01-06T08:50:15.134Z,4.80
2023-01-06T08:52:41.947Z,13.13
2023-01-06T08:55:09.919Z,2.88
2023-01-06T08:57:36.711Z,5.22
2023-01-06T09:00:06.428Z,4.05
2023-01-06T09:02:33.208Z,11.70
2023-01-06T09:05:00.195Z,5.60
2023-01-06T09:07:27.253Z,4.75
2023-01-06T09:09:54.301Z,7.85
2023-01-06T09:12:28.924Z,6.15
2023-01-06T09:14:55.742Z,8.18
2023-01-06T09:17:22.825Z,6.05
2023-01-06T09:19:52.785Z,6.13
2023-01-06T09:22:19.982Z,5.20
2023-01-06T09:24:46.927Z,15.13
2023-01-06T09:27:13.771Z,11.70
2023-01-06T09:29:41.091Z,13.32
2023-01-06T09:32:08.021Z,5.50
2023-01-06T09:34:35.193Z,13.52
2023-01-06T09:37:02.471Z,7.35
2023-01-06T09:39:29.276Z,4.90
2023-01-06T09:42:23.806Z,10.68
2023-01-06T09:45:05.558Z,7.35
2023-01-06T09:47:51.176Z,11.50
2023-01-06T09:50:36.044Z,9.20
2023-01-06T09:53:10.774Z,9.25
2023-01-06T09:55:45.304Z,5.93
2023-01-06T09:58:23.028Z,5.90
2023-01-06T10:00:53.272Z,7.97
2023-01-06T10:06:09.944Z,11.00
2023-01-06T10:08:48.664Z,9.18
2023-01-06T10:11:49.605Z,6.57
2023-01-06T10:14:29.768Z,7.53
2023-01-06T10:17:01.933Z,10.85
2023-01-06T10:19:51.094Z,9.68
2023-01-06T10:22:52.026Z,7.20
2023-01-06T10:25:28.723Z,7.32
2023-01-06T10:28:17.119Z,7.10
2023-01-06T10:30:48.100Z,10.55
2023-01-06T10:33:49.861Z,2.67
2023-01-06T10:36:19.847Z,6.50
2023-01-06T10:38:53.172Z,3.13
2023-01-06T10:41:48.452Z,7.85
2023-01-06T10:44:18.487Z,4.28
2023-01-06T10:46:47.883Z,5.43
2023-01-06T10:49:17.649Z,7.72
2023-01-06T10:51:54.789Z,9.80
2023-01-06T10:54:28.147Z,13.60
2023-01-06T10:57:06.406Z,7.03
2023-01-06T10:59:33.245Z,7.97
2023-01-06T11:02:00.481Z,7.53
2023-01-06T11:04:33.286Z,5.63
2023-01-06T11:07:02.518Z,5.60
2023-01-06T11:09:41.772Z,4.28
2023-01-06T11:12:25.810Z,4.07
2023-01-06T11:15:06.121Z,6.88
2023-01-06T11:17:33.286Z,3.28
2023-01-06T11:20:31.548Z,1.65
2023-01-06T11:23:21.897Z,5.18
2023-01-06T11:26:25.093Z,5.72
2023-01-06T11:28:55.967Z,7.95
2023-01-06T11:31:28.208Z,6.00
2023-01-06T11:36:34.207Z,5.45
2023-01-06T11:39:07.106Z,6.22
2023-01-06T11:41:40.230Z,33.10
2023-01-06T11:44:11.544Z,2.80
2023-01-06T11:46:45.349Z,8.48
2023-01-06T11:49:29.403Z,5.38
2023-01-06T11:52:02.865Z,6.03
2023-01-06T11:54:36.116Z,5.10
2023-01-06T11:57:26.641Z,6.30
2023-01-06T12:00:20.765Z,8.98
2023-01-06T12:02:54.928Z,2.92
2023-01-06T12:05:32.396Z,5.05
2023-01-06T12:08:00.671Z,3.20
2023-01-06T12:10:34.560Z,3.33
2023-01-06T12:13:01.555Z,4.90
2023-01-06T12:15:31.019Z,3.53
2023-01-06T12:18:07.993Z,4.53
2023-01-06T12:20:39.014Z,5.57
2023-01-06T12:23:16.328Z,4.47
2023-01-06T12:25:48.997Z,14.40
2023-01-06T12:28:31.727Z,4.95
2023-01-06T12:31:16.061Z,4.53
2023-01-06T12:33:59.343Z,2.95
2023-01-06T12:36:48.509Z,4.35
2023-01-06T12:39:34.141Z,3.38
2023-01-06T12:42:16.760Z,3.85
2023-01-06T12:44:53.105Z,5.43
2023-01-06T12:47:37.730Z,2.58
2023-01-06T12:50:30.075Z,5.78
2023-01-06T12:53:12.904Z,5.00
2023-01-06T12:56:08.069Z,2.15
2023-01-06T12:59:09.766Z,3.90
2023-01-06T13:02:12.615Z,2.42
2023-01-06T13:05:06.932Z,2.92
2023-01-06T13:07:58.021Z,3.95
2023-01-06T13:10:49.419Z,5.25
2023-01-06T13:13:31.848Z,4.35
2023-01-06T13:18:51.670Z,6.85
2023-01-06T13:21:21.374Z,5.63
2023-01-06T13:24:08.836Z,5.53
2023-01-06T13:26:53.297Z,2.10
2023-01-06T13:29:53.993Z,3.97
2023-01-06T13:32:53.146Z,3.72
2023-01-06T13:35:38.373Z,3.95
2023-01-06T13:38:23.357Z,5.88
2023-01-06T13:40:52.895Z,0.85
2023-01-06T13:43:27.214Z,4.47
2023-01-06T13:46:07.359Z,1.52
2023-01-06T13:48:39.788Z,7.82
2023-01-06T13:51:12.428Z,1.95
2023-01-06T13:53:46.069Z,2.58
2023-01-06T13:56:16.721Z,3.97
2023-01-06T13:58:44.978Z,4.20
2023-01-06T14:01:13.184Z,5.47
2023-01-06T14:03:42.228Z,3.05
2023-01-06T14:06:38.844Z,4.80
2023-01-06T14:09:20.110Z,6.80
2023-01-06T14:11:48.014Z,17.25
2023-01-06T14:14:28.484Z,8.32
2023-01-06T14:16:58.154Z,6.15
2023-01-06T14:19:40.279Z,4.25
2023-01-06T14:22:22.067Z,6.45
2023-01-06T14:24:56.065Z,5.40
2023-01-06T14:27:49.218Z,2.92
2023-01-06T14:30:23.696Z,7.35
2023-01-06T14:32:53.173Z,3.75
2023-01-06T14:35:47.128Z,6.30
2023-01-06T14:38:26.271Z,5.60
2023-01-06T14:41:04.997Z,4.38
2023-01-06T14:43:53.969Z,5.90
2023-01-06T14:46:26.063Z,4.07
2023-01-06T14:49:04.844Z,5.43
2023-01-06T14:51:34.533Z,4.78
2023-01-06T14:54:06.885Z,7.32
2023-01-06T14:59:23.596Z,6.88
2023-01-06T15:02:13.711Z,4.45
2023-01-06T15:04:45.677Z,4.05
2023-01-06T15:07:18.077Z,6.38
2023-01-06T15:12:32.775Z,3.78
2023-01-06T15:15:23.832Z,5.32
2023-01-06T15:17:54.586Z,8.00
2023-01-06T15:20:30.541Z,4.80
2023-01-06T15:22:59.743Z,7.57
2023-01-06T15:25:29.424Z,6.03
2023-01-06T15:27:57.645Z,7.20
2023-01-06T15:30:27.808Z,9.13
2023-01-06T15:32:55.967Z,4.25
2023-01-06T15:35:29.423Z,12.02
2023-01-06T15:38:04.975Z,12.20
2023-01-06T15:40:34.058Z,6.68
2023-01-06T15:43:01.525Z,9.00
2023-01-06T15:45:34.911Z,7.32
2023-01-06T15:48:13.196Z,10.88
2023-01-06T15:50:40.056Z,7.22
2023-01-06T15:53:18.275Z,7.93
2023-01-06T15:55:50.147Z,12.25
2023-01-06T15:58:26.794Z,9.85
2023-01-06T16:01:13.675Z,4.15
2023-01-06T16:03:40.625Z,9.77
2023-01-06T16:06:13.137Z,9.48
2023-01-06T16:08:42.650Z,8.02
2023-01-06T16:11:45.839Z,10.93
2023-01-06T16:14:35.107Z,10.35
2023-01-06T16:17:16.922Z,11.63
2023-01-06T16:19:59.963Z,6.45
2023-01-06T16:22:57.032Z,9.13
2023-01-06T16:25:26.854Z,10.15
2023-01-06T16:27:56.457Z,9.98
2023-01-06T16:30:36.763Z,8.25
2023-01-06T16:33:04.492Z,10.77
2023-01-06T16:35:34.256Z,11.07
2023-01-06T16:38:02.459Z,10.68
2023-01-06T16:40:30.453Z,11.75
2023-01-06T16:43:00.637Z,9.63
2023-01-06T16:45:45.226Z,12.35
2023-01-06T16:48:16.251Z,14.32
2023-01-06T16:50:54.861Z,10.50
2023-01-06T16:53:25.142Z,6.70
2023-01-06T16:55:54.323Z,10.73
2023-01-06T16:58:29.794Z,8.70
2023-01-06T17:01:01.435Z,9.82
2023-01-06T17:03:35.515Z,12.43
2023-01-06T17:06:02.924Z,11.27
2023-01-06T17:08:32.121Z,10.43
2023-01-06T17:11:10.335Z,9.88
2023-01-06T17:13:39.207Z,9.25
2023-01-06T17:16:14.663Z,11.52
2023-01-06T17:18:55.426Z,8.75
2023-01-06T17:21:29.946Z,8.25
2023-01-06T17:24:16.970Z,9.40
2023-01-06T17:26:54.970Z,7.47
2023-01-06T17:29:24.479Z,9.63
2023-01-06T17:31:55.412Z,8.77
2023-01-06T17:34:25.129Z,13.48
2023-01-06T17:36:56.690Z,9.90
2023-01-06T17:39:38.978Z,11.63
2023-01-06T17:42:13.356Z,12.20
2023-01-06T17:44:50.850Z,13.63
2023-01-06T17:47:17.684Z,11.68
2023-01-06T17:49:50.344Z,9.10
2023-01-06T17:52:21.369Z,9.50
2023-01-06T17:55:16.872Z,10.95
2023-01-06T17:57:47.002Z,11.60
2023-01-06T18:00:35.312Z,14.90
2023-01-06T18:03:04.972Z,9.75
2023-01-06T18:05:34.935Z,13.25
2023-01-06T18:08:14.603Z,10.27
2023-01-06T18:10:44.673Z,8.60
2023-01-06T18:13:25.278Z,13.73
2023-01-06T18:15:56.500Z,10.00
2023-01-06T18:18:33.230Z,14.77
2023-01-06T18:21:12.595Z,11.82
2023-01-06T18:23:40.989Z,12.63
2023-01-06T18:26:31.005Z,12.73
2023-01-06T18:29:14.014Z,9.38
2023-01-06T18:31:42.971Z,12.98
2023-01-06T18:34:37.436Z,12.35
2023-01-06T18:37:05.754Z,9.07
2023-01-06T18:39:46.406Z,12.70
2023-01-06T18:42:25.332Z,12.15
2023-01-06T18:45:05.428Z,10.65
2023-01-06T18:47:37.359Z,9.05
2023-01-06T18:50:23.093Z,13.65
2023-01-06T18:52:51.212Z,12.60
2023-01-06T18:55:24.812Z,10.82
2023-01-06T18:58:00.364Z,11.20
2023-01-06T19:00:31.953Z,11.50
2023-01-06T19:03:23.539Z,12.88
2023-01-06T19:05:54.421Z,10.23
2023-01-06T19:08:34.741Z,13.02
2023-01-06T19:11:03.263Z,10.50
2023-01-06T19:13:32.898Z,11.95
2023-01-06T19:16:05.846Z,11.70
2023-01-06T19:18:37.313Z,12.15
2023-01-06T19:21:12.107Z,13.57
2023-01-06T19:23:39.440Z,13.13
2023-01-06T19:26:36.911Z,16.33
2023-01-06T19:29:13.202Z,14.27
2023-01-06T19:31:55.613Z,11.98
2023-01-06T19:36:58.342Z,13.95
2023-01-06T19:39:30.672Z,14.40
2023-01-06T19:42:19.356Z,14.48
2023-01-06T19:44:49.940Z,12.73
2023-01-06T19:47:25.909Z,13.88
2023-01-06T19:49:58.608Z,15.73
2023-01-06T19:52:43.913Z,13.27
2023-01-06T19:55:16.703Z,14.40
2023-01-06T19:57:53.000Z,9.18
2023-01-06T20:00:43.878Z,16.80
2023-01-06T20:03:27.278Z,12.90
2023-01-06T20:05:54.242Z,13.38
2023-01-06T20:08:23.237Z,13.65
2023-01-06T20:10:50.164Z,9.02
2023-01-06T20:13:17.203Z,10.40
2023-01-06T20:15:44.263Z,12.38
2023-01-06T20:18:11.149Z,12.48
2023-01-06T20:20:38.135Z,9.75
2023-01-06T20:23:05.925Z,14.32
2023-01-06T20:25:33.168Z,10.75
2023-01-06T20:28:00.299Z,11.80
2023-01-06T20:30:29.869Z,11.85
2023-01-06T20:32:56.665Z,11.20
2023-01-06T20:35:23.565Z,11.15
2023-01-06T20:37:51.988Z,10.40
2023-01-06T20:40:19.544Z,10.93
2023-01-06T20:42:47.461Z,10.60
2023-01-06T20:45:14.824Z,8.20
2023-01-06T20:47:47.289Z,10.60
2023-01-06T20:50:14.706Z,7.97
2023-01-06T20:52:42.445Z,6.20
2023-01-06T20:55:09.666Z,10.77
2023-01-06T20:57:37.478Z,10.77
2023-01-06T21:00:06.588Z,10.52
2023-01-06T21:02:36.145Z,8.90
2023-01-06T21:05:05.527Z,10.60
2023-01-06T21:07:34.086Z,6.68
2023-01-06T21:10:04.152Z,12.70
2023-01-06T21:12:33.394Z,12.27
2023-01-06T21:15:00.238Z,10.20
2023-01-06T21:17:28.316Z,10.43
2023-01-06T21:19:55.779Z,10.93
2023-01-06T21:22:23.212Z,8.63
2023-01-06T21:24:50.357Z,12.85
2023-01-06T21:27:21.361Z,7.07
2023-01-06T21:29:49.064Z,13.43
2023-01-06T21:32:16.982Z,11.32
2023-01-06T21:34:43.928Z,6.53
2023-01-06T21:37:12.120Z,13.90
2023-01-06T21:39:40.227Z,10.48
2023-01-06T21:42:25.517Z,14.45
2023-01-06T21:44:52.259Z,16.88
2023-01-06T21:47:20.570Z,13.07
2023-01-06T21:49:47.617Z,16.13
2023-01-06T21:52:17.334Z,17.42
2023-01-06T21:54:45.019Z,13.52
2023-01-06T21:57:12.542Z,16.92
2023-01-06T21:59:40.063Z,16.23
2023-01-06T22:02:10.284Z,13.73
2023-01-06T22:04:37.328Z,14.93
2023-01-06T22:07:21.513Z,15.98
2023-01-06T22:09:50.265Z,14.95
2023-01-06T22:12:19.064Z,14.52
2023-01-06T22:14:49.719Z,15.15
2023-01-06T22:17:17.735Z,16.30
2023-01-06T22:19:47.459Z,16.52
2023-01-06T22:22:14.764Z,17.25
2023-01-06T22:24:45.248Z,16.75
2023-01-06T22:27:12.090Z,16.48
2023-01-06T22:29:38.985Z,13.63
2023-01-06T22:32:09.051Z,16.65
2023-01-06T22:34:37.417Z,15.63
2023-01-06T22:37:06.667Z,14.50
2023-01-06T22:39:33.626Z,16.33
2023-01-06T22:42:00.478Z,15.15
2023-01-06T22:44:28.795Z,7.53
2023-01-06T22:47:00.028Z,13.50
2023-01-06T22:49:27.959Z,11.88
2023-01-06T22:51:55.664Z,13.85
2023-01-06T22:54:23.555Z,14.35
2023-01-06T22:56:50.370Z,12.00
2023-01-06T22:59:18.874Z,11.30
2023-01-06T23:01:45.928Z,15.43
2023-01-06T23:04:15.165Z,10.55
2023-01-06T23:06:43.345Z,12.02
2023-01-06T23:09:11.308Z,10.10
2023-01-06T23:11:42.264Z,12.07
2023-01-06T23:14:13.439Z,12.88
2023-01-06T23:16:41.755Z,13.65
2023-01-06T23:19:12.009Z,16.38
2023-01-06T23:21:39.905Z,13.95
2023-01-06T23:24:09.615Z,7.57
2023-01-06T23:26:44.870Z,13.00
2023-01-06T23:29:12.724Z,15.60
2023-01-06T23:31:43.141Z,14.38
2023-01-06T23:34:13.179Z,12.13
2023-01-06T23:36:42.288Z,12.55
2023-01-06T23:39:13.365Z,11.25
2023-01-06T23:41:40.621Z,13.80
2023-01-06T23:44:07.897Z,16.13
2023-01-06T23:46:41.872Z,15.18
2023-01-06T23:49:15.617Z,8.70
2023-01-06T23:51:43.759Z,12.93
2023-01-06T23:54:13.060Z,13.68
2023-01-06T23:56:42.202Z,14.55
2023-01-06T23:59:13.089Z,12.95
